Saint-Gabriel-De-Brandon, Canada
Current Conditions -  °F | °C
As of 1:00 PM on Sunday 25 Jan 2015 (Local Time) from CYRQ Reporting Station
Clear Clear  
Wind Chill: -2°   Ceiling: Unl
Heat Index: 10°   Visibility: 9mi
Dew Point: -6°   Wind: 8mph
Humidity: 48%   Direction: 270°W
Pressure: 29.74"   Gusts: NA
Location:  46.28°N, 73.37°W
Report Text: CYRQ 251800Z AUTO 27007KT 250V340 9SM CLR M12/M21 A2974 RMK SLP073
Loading
Personal Weather Stations






























Interactive Weather Map New forecast layout! Learn more

10-Day Weather Forecast

Advertisements
Track Severe Weather on mobile